TimeAST,TemperatureF,Dew PointF,Humidity,Sea Level PressureIn,VisibilityMPH,Wind Direction,Wind SpeedMPH,Gust SpeedMPH,PrecipitationIn,Events,Conditions,WindDirDegrees,DateUTC
12:00 AM,82.4,73.4,74,29.98,6.2,ENE,5.8,-,N/A,,Partly Cloudy,70,2013-10-10 04:00:00
1:00 AM,82.4,75.2,79,29.95,6.2,ENE,9.2,-,N/A,,Partly Cloudy,70,2013-10-10 05:00:00
2:00 AM,,74,,29.94,1,NNE,89.8,,,,Scattered Clouds,20,2013-10-10 06:00:00
2:00 AM,82.4,73.4,74,29.92,6.2,ENE,10.4,-,N/A,,Partly Cloudy,70,2013-10-10 06:00:00
3:00 AM,82.4,73.4,74,29.92,6.2,ENE,9.2,-,N/A,,Partly Cloudy,70,2013-10-10 07:00:00
4:00 AM,82.4,73.4,74,29.92,6.2,East,6.9,-,N/A,,Partly Cloudy,80,2013-10-10 08:00:00
5:00 AM,81,74,75,29.93,19,East,8.1,,,Rain,Light Rain Showers,80,2013-10-10 09:00:00
5:00 AM,80.6,75.2,84,29.92,6.2,East,8.1,-,N/A,,Scattered Clouds,80,2013-10-10 09:00:00
6:00 AM,82.4,73.4,74,29.92,6.2,East,10.4,-,N/A,,Partly Cloudy,80,2013-10-10 10:00:00
7:00 AM,82.4,75.2,79,29.95,5.6,East,8.1,-,N/A,Rain,Light Rain Showers,80,2013-10-10 11:00:00
8:00 AM,84,74,66,29.98,6,East,6.9,,,Rain,Light Rain Showers,90,2013-10-10 12:00:00
8:00 AM,84.2,75.2,74,29.98,5.6,East,9.2,-,N/A,,Mostly Cloudy,80,2013-10-10 12:00:00
9:00 AM,86.0,75.2,70,29.98,6.2,East,10.4,-,N/A,,Scattered Clouds,100,2013-10-10 13:00:00
10:00 AM,86.0,73.4,66,29.98,6.2,ESE,10.4,-,N/A,,Scattered Clouds,110,2013-10-10 14:00:00
11:00 AM,87,74,57,29.99,44,SE,8.1,,,,Partly Cloudy,130,2013-10-10 15:00:00
11:00 AM,87.8,75.2,66,29.98,6.2,ESE,9.2,-,N/A,,Scattered Clouds,120,2013-10-10 15:00:00
12:00 PM,87.8,75.2,66,29.95,6.2,ESE,8.1,-,N/A,,Scattered Clouds,120,2013-10-10 16:00:00
1:00 PM,82.4,71.6,70,29.95,6.2,SSE,9.2,-,N/A,,Scattered Clouds,150,2013-10-10 17:00:00
2:00 PM,85,72,58,29.94,9,ESE,11.5,,,,Partly Cloudy,110,2013-10-10 18:00:00
2:00 PM,86.0,73.4,66,29.92,6.2,ESE,9.2,-,N/A,,Scattered Clouds,110,2013-10-10 18:00:00
3:00 PM,86.0,71.6,62,29.92,6.2,ESE,10.4,-,N/A,,Partly Cloudy,120,2013-10-10 19:00:00
4:00 PM,86.0,73.4,66,29.89,6.2,ESE,11.5,-,N/A,,Partly Cloudy,120,2013-10-10 20:00:00
5:00 PM,85,73,61,29.91,25,East,10.4,,,,Scattered Clouds,100,2013-10-10 21:00:00
5:00 PM,86.0,73.4,66,29.89,6.2,East,10.4,-,N/A,,Partly Cloudy,100,2013-10-10 21:00:00
6:00 PM,84.2,73.4,70,29.92,6.2,East,9.2,-,N/A,,Partly Cloudy,90,2013-10-10 22:00:00
7:00 PM,84.2,73.4,70,29.92,6.2,East,8.1,-,N/A,,Partly Cloudy,80,2013-10-10 23:00:00
8:00 PM,83,74,66,29.96,25,East,9.2,,,,Scattered Clouds,100,2013-10-11 00:00:00
8:00 PM,84.2,73.4,70,29.95,6.2,East,9.2,-,N/A,,Partly Cloudy,80,2013-10-11 00:00:00
9:00 PM,84.2,73.4,70,29.95,6.2,East,8.1,-,N/A,,Partly Cloudy,90,2013-10-11 01:00:00
10:00 PM,82.4,73.4,74,29.95,6.2,East,10.4,-,N/A,,Partly Cloudy,90,2013-10-11 02:00:00
11:00 PM,83,74,68,29.97,25,East,9.2,,,,Scattered Clouds,100,2013-10-11 03:00:00
11:00 PM,82.4,73.4,74,29.95,6.2,East,9.2,-,N/A,,Partly Cloudy,100,2013-10-11 03:00:00